createdAt,value
2022-09-25T00:02:04.462Z,7.20
2022-09-25T00:04:32.123Z,6.93
2022-09-25T00:06:59.700Z,7.17
2022-09-25T00:09:28.572Z,7.27
2022-09-25T00:11:56.178Z,6.43
2022-09-25T00:14:23.732Z,7.23
2022-09-25T00:16:51.283Z,7.77
2022-09-25T00:19:39.358Z,7.30
2022-09-25T00:22:06.943Z,8.00
2022-09-25T00:24:36.526Z,8.13
2022-09-25T00:27:06.017Z,8.13
2022-09-25T00:29:33.580Z,6.97
2022-09-25T00:32:01.140Z,8.13
2022-09-25T00:34:28.752Z,7.80
2022-09-25T00:36:56.404Z,7.47
2022-09-25T00:39:24.017Z,7.50
2022-09-25T00:41:53.030Z,7.67
2022-09-25T00:44:56.301Z,7.87
2022-09-25T00:47:29.818Z,7.53
2022-09-25T00:49:58.892Z,8.30
2022-09-25T00:52:26.647Z,8.70
2022-09-25T00:54:56.595Z,8.70
2022-09-25T00:57:29.985Z,7.90
2022-09-25T01:00:00.416Z,7.40
2022-09-25T01:02:30.374Z,9.00
2022-09-25T01:04:59.225Z,7.57
2022-09-25T01:07:27.000Z,8.67
2022-09-25T01:09:55.077Z,8.63
2022-09-25T01:12:22.642Z,8.17
2022-09-25T01:14:51.922Z,8.83
2022-09-25T01:17:23.965Z,8.40
2022-09-25T01:19:59.539Z,8.53
2022-09-25T01:22:37.908Z,8.43
2022-09-25T01:25:11.916Z,9.20
2022-09-25T01:27:44.692Z,9.20
2022-09-25T01:30:15.052Z,8.97
2022-09-25T01:32:58.364Z,8.93
2022-09-25T01:35:37.422Z,9.30
2022-09-25T01:38:11.386Z,9.07
2022-09-25T01:40:44.194Z,9.13
2022-09-25T01:43:14.592Z,9.20
2022-09-25T01:45:45.057Z,9.03
2022-09-25T01:48:15.332Z,9.07
2022-09-25T01:50:45.997Z,9.73
2022-09-25T01:53:17.661Z,8.30
2022-09-25T01:55:48.600Z,8.93
2022-09-25T01:58:18.903Z,9.20
2022-09-25T02:00:53.066Z,8.73
2022-09-25T02:03:24.674Z,10.10
2022-09-25T02:05:54.694Z,9.13
2022-09-25T02:08:24.202Z,9.77
2022-09-25T02:10:55.839Z,9.07
2022-09-25T02:13:25.827Z,8.40
2022-09-25T02:15:56.702Z,9.00
2022-09-25T02:18:42.397Z,7.67
2022-09-25T02:21:14.667Z,7.30
2022-09-25T02:23:50.897Z,7.10
2022-09-25T02:26:23.749Z,7.33
2022-09-25T02:28:51.875Z,7.10
2022-09-25T02:31:22.224Z,9.33
2022-09-25T02:33:50.904Z,8.87
2022-09-25T02:36:19.928Z,9.93
2022-09-25T02:38:49.415Z,9.23
2022-09-25T02:41:21.242Z,9.23
2022-09-25T02:43:55.781Z,8.77
2022-09-25T02:46:30.399Z,9.47
2022-09-25T02:49:00.813Z,9.57
2022-09-25T02:51:30.926Z,9.57
2022-09-25T02:54:07.344Z,9.53
2022-09-25T02:56:37.165Z,10.63
2022-09-25T02:59:08.885Z,10.83
2022-09-25T03:01:39.750Z,10.43
2022-09-25T03:04:07.541Z,9.40
2022-09-25T03:06:35.114Z,8.60
2022-09-25T03:09:03.319Z,9.80
2022-09-25T03:11:30.871Z,9.40
2022-09-25T03:13:59.567Z,9.13
2022-09-25T03:16:33.594Z,8.63
2022-09-25T03:19:03.735Z,8.83
2022-09-25T03:21:31.936Z,8.30
2022-09-25T03:23:59.618Z,8.63
2022-09-25T03:26:28.172Z,8.70
2022-09-25T03:28:55.882Z,7.83
2022-09-25T03:31:23.935Z,8.00
2022-09-25T03:33:51.526Z,7.53
2022-09-25T03:36:22.272Z,7.07
2022-09-25T03:38:52.985Z,8.13
2022-09-25T03:41:22.606Z,7.70
2022-09-25T03:43:51.859Z,8.10
2022-09-25T03:46:21.046Z,7.13
2022-09-25T03:48:49.008Z,7.40
2022-09-25T03:51:16.742Z,6.57
2022-09-25T03:53:46.103Z,6.27
2022-09-25T03:56:15.541Z,5.60
2022-09-25T03:58:43.048Z,5.70
2022-09-25T04:01:11.021Z,5.23
2022-09-25T04:03:39.252Z,5.23
2022-09-25T04:06:08.864Z,5.23
2022-09-25T04:08:37.215Z,4.33
2022-09-25T04:11:06.612Z,4.23
2022-09-25T04:13:36.277Z,5.07
2022-09-25T04:16:06.123Z,5.50
2022-09-25T04:18:33.847Z,5.10
2022-09-25T04:21:01.752Z,5.50
2022-09-25T04:23:29.331Z,4.50
2022-09-25T04:25:57.044Z,4.53
2022-09-25T04:28:26.616Z,4.40
2022-09-25T04:30:54.205Z,4.50
2022-09-25T04:33:39.626Z,4.27
2022-09-25T04:36:07.556Z,4.07
2022-09-25T04:38:35.554Z,4.40
2022-09-25T04:41:03.839Z,4.80
2022-09-25T04:43:33.848Z,4.50
2022-09-25T04:46:02.812Z,4.43
2022-09-25T04:48:30.704Z,4.47
2022-09-25T04:50:58.321Z,4.90
2022-09-25T04:53:27.368Z,4.40
2022-09-25T04:55:55.832Z,3.90
2022-09-25T04:58:23.500Z,4.10
2022-09-25T05:00:52.792Z,4.13
2022-09-25T05:03:20.584Z,4.60
2022-09-25T05:05:48.266Z,4.67
2022-09-25T05:08:15.792Z,4.83
2022-09-25T05:10:44.479Z,5.20
2022-09-25T05:13:12.379Z,4.70
2022-09-25T05:15:39.928Z,5.30
2022-09-25T05:18:17.765Z,5.00
2022-09-25T05:20:45.335Z,4.30
2022-09-25T05:23:13.161Z,5.33
2022-09-25T05:25:40.753Z,5.90
2022-09-25T05:28:08.456Z,6.07
2022-09-25T05:30:36.958Z,5.30
2022-09-25T05:33:04.607Z,5.50
2022-09-25T05:35:34.548Z,6.40
2022-09-25T05:38:02.102Z,6.40
2022-09-25T05:40:29.753Z,6.17
2022-09-25T05:42:58.358Z,6.13
2022-09-25T05:45:25.907Z,5.40
2022-09-25T05:48:01.927Z,5.57
2022-09-25T05:50:29.585Z,5.87
2022-09-25T05:52:59.041Z,5.83
2022-09-25T05:55:26.754Z,5.60
2022-09-25T05:57:54.326Z,5.30
2022-09-25T06:00:21.951Z,5.30
2022-09-25T06:02:52.963Z,5.17
2022-09-25T06:05:20.690Z,5.33
2022-09-25T06:07:53.558Z,5.50
2022-09-25T06:10:26.164Z,5.87
2022-09-25T06:12:56.051Z,5.63
2022-09-25T06:15:24.064Z,6.03
2022-09-25T06:17:51.763Z,6.63
2022-09-25T06:20:19.591Z,7.40
2022-09-25T06:22:52.932Z,7.30
2022-09-25T06:25:20.501Z,7.03
2022-09-25T06:27:50.131Z,7.17
2022-09-25T06:30:19.003Z,7.43
2022-09-25T06:32:46.561Z,7.37
2022-09-25T06:35:14.653Z,7.03
2022-09-25T06:37:42.234Z,7.03
2022-09-25T06:40:10.779Z,6.57
2022-09-25T06:42:38.946Z,6.77
2022-09-25T06:45:10.859Z,7.10
2022-09-25T06:47:38.472Z,7.23
2022-09-25T06:50:06.572Z,7.20
2022-09-25T06:52:34.205Z,7.80
2022-09-25T06:55:01.758Z,7.77
2022-09-25T06:57:30.445Z,5.57
2022-09-25T06:59:58.028Z,5.90
2022-09-25T07:02:44.357Z,5.83
2022-09-25T07:05:13.297Z,4.60
2022-09-25T07:07:40.890Z,5.60
2022-09-25T07:10:09.237Z,5.63
2022-09-25T07:12:36.772Z,5.80
2022-09-25T07:15:04.630Z,6.70
2022-09-25T07:17:33.563Z,6.87
2022-09-25T07:20:01.111Z,6.77
2022-09-25T07:22:30.240Z,7.23
2022-09-25T07:24:57.801Z,7.37
2022-09-25T07:27:25.555Z,6.93
2022-09-25T07:29:53.337Z,6.87
2022-09-25T07:32:21.542Z,7.27
2022-09-25T07:34:51.181Z,8.23
2022-09-25T07:37:18.855Z,6.77
2022-09-25T07:39:46.420Z,7.77
2022-09-25T07:42:14.240Z,8.23
2022-09-25T07:44:46.067Z,7.03
2022-09-25T07:47:16.973Z,7.63
2022-09-25T07:49:44.540Z,7.30
2022-09-25T07:52:13.845Z,7.57
2022-09-25T07:54:43.867Z,7.47
2022-09-25T07:57:12.231Z,7.73
2022-09-25T07:59:40.095Z,7.97
2022-09-25T08:02:07.877Z,7.20
2022-09-25T08:04:35.509Z,7.63
2022-09-25T08:07:03.069Z,8.03
2022-09-25T08:09:31.957Z,7.30
2022-09-25T08:11:59.536Z,8.43
2022-09-25T08:14:27.322Z,8.73
2022-09-25T08:16:55.965Z,8.53
2022-09-25T08:19:24.044Z,9.00
2022-09-25T08:21:51.857Z,7.77
2022-09-25T08:24:19.543Z,8.50
2022-09-25T08:26:50.125Z,8.27
2022-09-25T08:29:18.170Z,7.77
2022-09-25T08:31:45.734Z,8.73
2022-09-25T08:34:39.371Z,8.17
2022-09-25T08:37:03.417Z,8.23
2022-09-25T08:39:31.012Z,7.87
2022-09-25T08:42:00.652Z,8.70
2022-09-25T08:44:32.196Z,7.77
2022-09-25T08:47:20.105Z,8.00
2022-09-25T08:49:52.107Z,8.10
2022-09-25T08:52:21.503Z,7.97
2022-09-25T08:54:49.062Z,8.40
2022-09-25T08:57:27.193Z,8.53
2022-09-25T09:00:01.547Z,7.73
2022-09-25T09:02:38.136Z,8.43
2022-09-25T09:05:09.010Z,7.37
2022-09-25T09:07:39.415Z,7.80
2022-09-25T09:10:10.369Z,8.47
2022-09-25T09:12:42.843Z,8.83
2022-09-25T09:15:22.279Z,8.67
2022-09-25T09:17:49.904Z,9.77
2022-09-25T09:20:19.690Z,9.67
2022-09-25T09:22:50.720Z,9.10
2022-09-25T09:25:28.827Z,8.93
2022-09-25T09:28:19.657Z,10.07
2022-09-25T09:30:55.139Z,9.83
2022-09-25T09:33:35.513Z,10.07
2022-09-25T09:36:09.061Z,11.13
2022-09-25T09:38:48.261Z,9.87
2022-09-25T09:41:22.570Z,10.83
2022-09-25T09:44:02.732Z,11.57
2022-09-25T09:46:38.159Z,10.43
2022-09-25T09:49:13.561Z,11.60
2022-09-25T09:51:43.368Z,10.87
2022-09-25T09:54:14.700Z,10.87
2022-09-25T09:56:43.486Z,10.50
2022-09-25T09:59:17.870Z,10.47
2022-09-25T10:01:47.496Z,11.30
2022-09-25T10:04:17.786Z,10.93
2022-09-25T10:06:47.905Z,11.83
2022-09-25T10:09:17.054Z,12.13
2022-09-25T10:11:45.594Z,12.40
2022-09-25T10:14:20.982Z,11.33
2022-09-25T10:16:50.121Z,11.53
2022-09-25T10:19:19.939Z,11.10
2022-09-25T10:21:49.470Z,11.83
2022-09-25T10:24:49.679Z,11.13
2022-09-25T10:27:29.317Z,11.37
2022-09-25T10:30:14.702Z,11.23
2022-09-25T10:32:54.943Z,11.03
2022-09-25T10:35:28.302Z,11.03
2022-09-25T10:37:58.167Z,11.40
2022-09-25T10:40:29.209Z,10.77
2022-09-25T10:43:05.128Z,10.77
2022-09-25T10:45:35.810Z,12.20
2022-09-25T10:48:20.588Z,13.47
2022-09-25T10:51:07.009Z,11.53
2022-09-25T10:53:34.522Z,11.87
2022-09-25T10:56:04.946Z,12.97
2022-09-25T10:58:37.317Z,12.27
2022-09-25T11:01:13.211Z,12.13
2022-09-25T11:03:46.872Z,12.13
2022-09-25T11:06:21.000Z,10.97
2022-09-25T11:08:51.262Z,11.33
2022-09-25T11:11:23.972Z,11.47
2022-09-25T11:13:54.194Z,11.33
2022-09-25T11:16:24.224Z,9.27
2022-09-25T11:18:52.623Z,9.53
2022-09-25T11:21:27.178Z,9.87
2022-09-25T11:24:09.258Z,9.40
2022-09-25T11:26:40.491Z,9.80
2022-09-25T11:29:13.314Z,8.57
2022-09-25T11:31:44.468Z,7.50
2022-09-25T11:34:20.455Z,7.57
2022-09-25T11:36:51.379Z,6.80
2022-09-25T11:39:42.500Z,6.87
2022-09-25T11:42:15.431Z,6.67
2022-09-25T11:44:47.671Z,7.10
2022-09-25T11:47:19.998Z,6.77
2022-09-25T11:49:49.746Z,6.40
2022-09-25T11:52:32.566Z,6.73
2022-09-25T11:55:43.533Z,6.13
2022-09-25T11:58:30.202Z,5.33
2022-09-25T12:01:03.728Z,5.03
2022-09-25T12:03:47.667Z,3.77
2022-09-25T12:06:24.583Z,4.30
2022-09-25T12:09:02.338Z,3.37
2022-09-25T12:11:38.004Z,3.73
2022-09-25T12:14:14.596Z,3.47
2022-09-25T12:16:48.885Z,3.57
2022-09-25T12:19:26.981Z,3.67
2022-09-25T12:22:01.976Z,3.27
2022-09-25T12:24:40.481Z,2.53
2022-09-25T12:27:19.503Z,2.50
2022-09-25T12:30:12.981Z,2.17
2022-09-25T12:33:03.357Z,2.20
2022-09-25T12:35:41.396Z,2.27
2022-09-25T12:38:15.535Z,1.90
2022-09-25T12:40:46.242Z,2.20
2022-09-25T12:43:19.326Z,1.80
2022-09-25T12:45:49.994Z,2.03
2022-09-25T12:48:22.928Z,1.67
2022-09-25T12:50:56.429Z,2.17
2022-09-25T12:53:30.966Z,2.07
2022-09-25T12:56:05.201Z,1.80
2022-09-25T12:58:45.394Z,1.77
2022-09-25T13:01:18.417Z,2.43
2022-09-25T13:03:50.013Z,2.33
2022-09-25T13:06:23.336Z,2.10
2022-09-25T13:08:55.510Z,1.73
2022-09-25T13:11:34.042Z,2.47
2022-09-25T13:14:03.108Z,2.03
2022-09-25T13:16:30.818Z,2.33
2022-09-25T13:19:12.254Z,2.40
2022-09-25T13:21:42.166Z,2.10
2022-09-25T13:24:13.544Z,2.10
2022-09-25T13:26:45.837Z,2.00
2022-09-25T13:29:22.498Z,2.40
2022-09-25T13:31:50.351Z,2.30
2022-09-25T13:34:19.658Z,2.30
2022-09-25T13:36:49.566Z,2.50
2022-09-25T13:39:37.725Z,2.43
2022-09-25T13:42:08.031Z,2.50
2022-09-25T13:44:57.160Z,2.77
2022-09-25T13:47:39.429Z,2.20
2022-09-25T13:50:19.756Z,2.87
2022-09-25T13:53:18.656Z,2.40
2022-09-25T13:56:21.530Z,2.40
2022-09-25T13:59:22.952Z,2.37
2022-09-25T14:01:54.086Z,2.20
2022-09-25T14:04:27.220Z,1.77
2022-09-25T14:06:58.421Z,1.90
2022-09-25T14:09:29.721Z,2.47
2022-09-25T14:12:08.065Z,2.10
2022-09-25T14:14:42.976Z,2.20
2022-09-25T14:17:15.792Z,2.10
2022-09-25T14:19:45.804Z,2.37
2022-09-25T14:22:20.628Z,2.23
2022-09-25T14:24:50.006Z,1.90
2022-09-25T14:27:22.787Z,1.80
2022-09-25T14:29:50.703Z,2.30
2022-09-25T14:32:54.017Z,2.27
2022-09-25T14:35:35.262Z,2.30
2022-09-25T14:38:17.840Z,2.00
2022-09-25T14:40:55.036Z,2.10
2022-09-25T14:43:45.084Z,2.50
2022-09-25T14:46:20.327Z,2.40
2022-09-25T14:48:50.705Z,2.27
2022-09-25T14:51:25.625Z,2.50
2022-09-25T14:53:58.688Z,2.33
2022-09-25T14:56:36.490Z,2.30
2022-09-25T14:59:14.154Z,1.70
2022-09-25T15:01:48.390Z,1.93
2022-09-25T15:04:27.958Z,2.07
2022-09-25T15:07:01.689Z,1.83
2022-09-25T15:09:32.186Z,1.83
2022-09-25T15:12:12.018Z,1.70
2022-09-25T15:14:40.198Z,1.70
2022-09-25T15:17:23.473Z,2.10
2022-09-25T15:19:51.648Z,2.00
2022-09-25T15:22:21.969Z,1.77
2022-09-25T15:24:54.346Z,1.70
2022-09-25T15:27:23.559Z,2.00
2022-09-25T15:29:52.341Z,2.30
2022-09-25T15:32:25.562Z,1.80
2022-09-25T15:35:06.626Z,1.60
2022-09-25T15:37:34.300Z,1.53
2022-09-25T15:40:04.294Z,2.07
2022-09-25T15:42:34.438Z,2.87
2022-09-25T15:45:05.705Z,2.00
2022-09-25T15:47:49.778Z,1.70
2022-09-25T15:50:23.892Z,1.63
2022-09-25T15:52:55.072Z,2.03
2022-09-25T15:55:23.615Z,2.07
2022-09-25T15:57:54.527Z,1.80
2022-09-25T16:00:41.889Z,2.20
2022-09-25T16:03:33.361Z,1.60
2022-09-25T16:06:03.462Z,1.93
2022-09-25T16:08:33.609Z,2.53
2022-09-25T16:11:13.158Z,2.30
2022-09-25T16:13:43.641Z,2.13
2022-09-25T16:16:22.070Z,2.20
2022-09-25T16:18:51.325Z,2.30
2022-09-25T16:21:22.759Z,2.63
2022-09-25T16:23:56.568Z,2.43
2022-09-25T16:26:26.479Z,2.50
2022-09-25T16:29:05.043Z,2.20
2022-09-25T16:31:33.851Z,2.33
2022-09-25T16:34:01.858Z,2.53
2022-09-25T16:36:38.828Z,2.17
2022-09-25T16:39:15.365Z,2.27
2022-09-25T16:41:46.269Z,2.07
2022-09-25T16:44:18.877Z,2.07
2022-09-25T16:46:48.181Z,2.03
2022-09-25T16:49:15.781Z,2.60
2022-09-25T16:51:45.838Z,2.30
2022-09-25T16:54:14.937Z,2.83
2022-09-25T16:56:43.624Z,2.40
2022-09-25T16:59:18.548Z,2.80
2022-09-25T17:01:46.910Z,2.60
2022-09-25T17:04:15.611Z,2.67
2022-09-25T17:06:47.514Z,2.30
2022-09-25T17:09:17.273Z,2.53
2022-09-25T17:11:46.343Z,2.60
2022-09-25T17:14:24.222Z,2.57
2022-09-25T17:16:52.446Z,2.70
2022-09-25T17:19:21.245Z,2.80
2022-09-25T17:21:51.188Z,2.93
2022-09-25T17:24:20.243Z,3.20
2022-09-25T17:26:49.126Z,2.50
2022-09-25T17:29:17.609Z,3.37
2022-09-25T17:31:46.886Z,2.87
2022-09-25T17:34:17.905Z,2.80
2022-09-25T17:36:45.642Z,2.83
2022-09-25T17:39:14.370Z,3.23
2022-09-25T17:41:42.524Z,2.60
2022-09-25T17:44:12.839Z,2.83
2022-09-25T17:46:40.803Z,2.33
2022-09-25T17:49:10.214Z,3.40
2022-09-25T17:51:38.594Z,2.60
2022-09-25T17:54:06.879Z,2.83
2022-09-25T17:56:35.278Z,2.53
2022-09-25T17:59:03.612Z,2.93
2022-09-25T18:01:36.717Z,3.00
2022-09-25T18:04:19.973Z,2.70
2022-09-25T18:06:47.780Z,3.13
2022-09-25T18:09:15.744Z,3.17
2022-09-25T18:11:44.909Z,3.10
2022-09-25T18:14:13.720Z,3.10
2022-09-25T18:16:42.784Z,3.00
2022-09-25T18:19:33.255Z,3.10
2022-09-25T18:22:20.399Z,3.47
2022-09-25T18:24:49.220Z,3.37
2022-09-25T18:27:17.355Z,3.53
2022-09-25T18:29:46.160Z,3.27
2022-09-25T18:32:14.348Z,3.30
2022-09-25T18:34:43.797Z,3.80
2022-09-25T18:37:11.711Z,3.47
2022-09-25T18:39:39.601Z,3.33
2022-09-25T18:42:07.762Z,3.10
2022-09-25T18:44:41.970Z,3.50
2022-09-25T18:47:10.662Z,3.30
2022-09-25T18:49:38.471Z,2.80
2022-09-25T18:52:07.915Z,3.80
2022-09-25T18:54:35.645Z,3.80
2022-09-25T18:57:03.242Z,3.40
2022-09-25T18:59:30.845Z,3.80
2022-09-25T19:01:58.715Z,3.60
2022-09-25T19:04:26.957Z,4.20
2022-09-25T19:06:54.517Z,3.70
2022-09-25T19:09:24.255Z,3.80
2022-09-25T19:11:51.879Z,3.97
2022-09-25T19:14:19.882Z,4.03
2022-09-25T19:16:48.186Z,3.80
2022-09-25T19:19:15.750Z,4.20
2022-09-25T19:21:44.655Z,4.23
2022-09-25T19:24:12.778Z,4.13
2022-09-25T19:26:42.673Z,4.07
2022-09-25T19:29:10.390Z,3.53
2022-09-25T19:31:40.913Z,4.10
2022-09-25T19:34:09.205Z,4.10
2022-09-25T19:36:36.883Z,4.30
2022-09-25T19:39:05.127Z,4.17
2022-09-25T19:41:34.351Z,3.77
2022-09-25T19:44:11.328Z,3.90
2022-09-25T19:46:41.502Z,3.50
2022-09-25T19:49:09.722Z,4.33
2022-09-25T19:51:37.654Z,4.60
2022-09-25T19:54:05.634Z,4.57
2022-09-25T19:56:33.492Z,3.87
2022-09-25T19:59:05.653Z,3.93
2022-09-25T20:01:33.747Z,3.97
2022-09-25T20:04:06.635Z,3.63
2022-09-25T20:06:36.695Z,3.40
2022-09-25T20:09:05.225Z,3.70
2022-09-25T20:11:34.370Z,3.90
2022-09-25T20:14:05.698Z,3.70
2022-09-25T20:16:36.284Z,3.70
2022-09-25T20:19:05.492Z,3.30
2022-09-25T20:21:35.529Z,4.00
2022-09-25T20:24:04.977Z,3.27
2022-09-25T20:26:32.738Z,3.70
2022-09-25T20:29:01.946Z,3.67
2022-09-25T20:31:32.602Z,3.47
2022-09-25T20:34:00.635Z,3.43
2022-09-25T20:36:28.265Z,3.37
2022-09-25T20:38:57.651Z,3.50
2022-09-25T20:41:27.211Z,3.47
2022-09-25T20:43:56.368Z,3.40
2022-09-25T20:46:25.147Z,3.60
2022-09-25T20:48:57.047Z,3.60
2022-09-25T20:51:26.945Z,3.53
2022-09-25T20:53:56.400Z,3.80
2022-09-25T20:56:24.080Z,3.00
2022-09-25T20:58:53.452Z,3.53
2022-09-25T21:01:22.984Z,3.80
2022-09-25T21:03:51.831Z,3.80
2022-09-25T21:06:22.621Z,3.93
2022-09-25T21:08:52.589Z,3.77
2022-09-25T21:11:20.400Z,3.17
2022-09-25T21:13:51.274Z,3.60
2022-09-25T21:16:19.652Z,4.50
2022-09-25T21:18:52.351Z,4.20
2022-09-25T21:21:21.442Z,3.97
2022-09-25T21:23:50.237Z,4.30
2022-09-25T21:26:18.605Z,4.13
2022-09-25T21:28:47.532Z,4.00
2022-09-25T21:31:17.232Z,4.83
2022-09-25T21:33:48.343Z,4.30
2022-09-25T21:36:17.683Z,4.00
2022-09-25T21:38:46.967Z,3.90
2022-09-25T21:41:16.398Z,4.10
2022-09-25T21:43:44.659Z,3.80
2022-09-25T21:46:14.159Z,3.67
2022-09-25T21:48:44.981Z,3.53
2022-09-25T21:51:14.508Z,3.43
2022-09-25T21:53:42.607Z,3.10
2022-09-25T21:56:13.755Z,3.30
2022-09-25T21:58:41.759Z,3.63
2022-09-25T22:01:11.117Z,3.50
2022-09-25T22:03:40.045Z,4.03
2022-09-25T22:06:09.861Z,3.50
2022-09-25T22:08:41.208Z,4.17
2022-09-25T22:11:09.228Z,4.00
2022-09-25T22:13:39.564Z,3.57
2022-09-25T22:16:08.830Z,4.03
2022-09-25T22:18:42.312Z,4.27
2022-09-25T22:21:10.512Z,3.83
2022-09-25T22:23:38.130Z,4.73
2022-09-25T22:26:06.124Z,3.97
2022-09-25T22:28:34.455Z,3.97
2022-09-25T22:31:06.480Z,3.93
2022-09-25T22:33:34.175Z,4.53
2022-09-25T22:36:02.475Z,4.07
2022-09-25T22:38:30.693Z,3.80
2022-09-25T22:40:58.414Z,3.90
2022-09-25T22:43:26.009Z,3.60
2022-09-25T22:45:54.471Z,3.53
2022-09-25T22:48:23.416Z,3.30
2022-09-25T22:50:55.247Z,3.50
2022-09-25T22:53:23.340Z,3.33
2022-09-25T22:55:51.652Z,4.07
2022-09-25T22:58:20.387Z,3.50
2022-09-25T23:00:50.874Z,4.00
2022-09-25T23:03:18.854Z,3.60
2022-09-25T23:05:47.917Z,3.60
2022-09-25T23:08:15.586Z,3.63
2022-09-25T23:11:06.062Z,3.60
2022-09-25T23:13:30.899Z,3.80
2022-09-25T23:15:58.748Z,3.60
2022-09-25T23:18:26.410Z,3.70
2022-09-25T23:20:55.881Z,3.93
2022-09-25T23:23:23.440Z,3.60
2022-09-25T23:25:50.981Z,4.33
2022-09-25T23:28:18.573Z,4.30
2022-09-25T23:30:46.125Z,4.00
2022-09-25T23:33:13.718Z,4.00
2022-09-25T23:35:41.274Z,3.87
2022-09-25T23:38:10.267Z,4.40
2022-09-25T23:40:38.323Z,4.00
2022-09-25T23:43:05.946Z,3.83
2022-09-25T23:45:33.617Z,3.60
2022-09-25T23:48:01.530Z,3.30
2022-09-25T23:50:29.159Z,3.60
2022-09-25T23:52:56.719Z,3.43
2022-09-25T23:55:25.632Z,3.37
2022-09-25T23:57:53.329Z,3.57
